Terminal Aerodrome Forecast
Issued by NWS

Home | Current Version | Previous Version | Text Only | Print | Product List | Glossary On
Versions: 1 2 3 4 5 6 7 8 9 10 11 12
000
FTUS42 KTAE 051730
TAFVLD
TAF
KVLD 051730Z 0518/0618 09010G15KT P6SM SCT050 SCT250
     FM060100 04003KT P6SM FEW030 SCT250
     FM060800 03003KT 5SM BR FEW004 BKN030
     FM061400 05006KT P6SM FEW035 FEW250=

USA.gov is the U.S. government's official web portal to all federal, state and local government web resources and services.